Spring Valley, Arizona
Current Conditions -  °F | °C
As of 11:15 AM on Saturday 25 Oct 2014 (Local Time) from KPAN Reporting Station
Few Clouds Few Clouds  
Wind Chill: 75°   Ceiling: Unl
Heat Index: 75°   Visibility: 10mi
Dew Point: 46°   Wind: 5mph
Humidity: 36%   Direction: NA
Pressure: 30.3"   Gusts: NA
Location:  34.2564°N, 111.978°W
Report Text: KPAN 251815Z AUTO VRB04KT 10SM FEW070 24/08 A3030 RMK AO2
Loading
Personal Weather Stations






























Interactive Weather Map
Tropical Storm Tracking
New forecast layout! Learn more

10-Day Weather Forecast

Advertisements
Track Severe Weather on mobile